Página principal
METAR-TAF:

METAR-TAF

Aeroportos :

Pago Pago, Ilhas Menores Distantes dos Estados Unidos

latitude: 14-20S, longitude: 170-43W, altura: 3 m

Observação actual do tempo

O boletim foi feito há 34 minutos, às 23:51 UTC
Vento 10 kt de este
Temperatura 31°C
Humidade 75%
Pressão 1012 hPa
Visibilidade: 19.3 km
Poucas nuvensa uma altura de 2000 ft
Poucas nuvensa uma altura de 24000 ft

METAR: NSTU 252351Z 10010KT 12SM FEW020 FEW240 31/26 A2989 RMK SLP124 8/101 T03130260 10313 20281 57012

Hora: 13:25 (00:25 UTC)

Previsão

O boletim foi feito há 50 minutos, às 23:35 UTC
Previsão válida de 26 às 00 UTC a 26 às 24 UTC
Vento 11 kt de este
Visibilidade: 10 km
Nuvens dispersasa uma altura de 2000 ft
Nuvens fragmentadasa uma altura de 4000 ft
aguaceiros nas vizinhanças

TAF: NSTU 252335Z 2600/2624 10011KT P6SM VCSH SCT020 BKN040

Observações e previsões do tempo de mais de 4000 aeroportos (mensagens METAR e TAF).

As estações disponíveis são os pontos amarelos e vermelhos sobre o mapa.

Mova o rato sobre o mapa para ver o nome da estação.

Depois clique no ponto para visualizar as observações e previsões meteorológicas.

Para alterar o mapa : clique nos botões verdes com uma cruz preta para aumentar o zoom; no botão verde com uma pitada de zoom; ou nas setas verdes para mapas adjacentes.


METAR-TAF: